Time;durP1;ratioP1;P1;durP2;ratioP2;P2;SDS_P1;SDS_P2;PMS_P1;PMS_P2;Temp;Humidity;BMP_temperature;BMP_pressure;BME280_temperature;BME280_humidity;BME280_pressure;Samples;Min_cycle;Max_cycle;Signal;HPM_P1;HPM_P2
2022/10/12 00:00:33;;;;;;;21.87;16.03;;;12.40;99.90;;;;;;5024819;28;20647;-73
2022/10/12 00:02:58;;;;;;;26.57;14.27;;;12.30;99.90;;;;;;5024834;28;20568;-73
2022/10/12 00:05:24;;;;;;;20.67;14.43;;;12.20;99.90;;;;;;5022833;28;20545;-73
2022/10/12 00:07:49;;;;;;;27.43;15.83;;;12.10;99.90;;;;;;5025096;28;20192;-72
2022/10/12 00:10:16;;;;;;;26.57;14.67;;;12.10;99.90;;;;;;4994171;28;20191;-72
2022/10/12 00:12:42;;;;;;;23.53;15.80;;;12.00;99.90;;;;;;5007276;28;20221;-72
2022/10/12 00:15:08;;;;;;;22.93;15.70;;;12.00;99.90;;;;;;5021476;28;20461;-72
2022/10/12 00:17:33;;;;;;;25.20;15.60;;;11.90;99.90;;;;;;5023932;28;20186;-73
2022/10/12 00:19:59;;;;;;;32.67;16.33;;;11.90;99.90;;;;;;5014217;28;20423;-73
2022/10/12 00:22:24;;;;;;;33.53;16.13;;;11.90;99.90;;;;;;5022519;28;20210;-72
2022/10/12 00:24:51;;;;;;;24.47;16.80;;;11.80;99.90;;;;;;5016178;28;20536;-72
2022/10/12 00:27:17;;;;;;;42.60;15.87;;;11.70;99.90;;;;;;5020607;28;20189;-73
2022/10/12 00:29:42;;;;;;;22.47;15.77;;;11.70;99.90;;;;;;5016833;28;20425;-72
2022/10/12 00:32:09;;;;;;;24.07;14.63;;;11.60;99.90;;;;;;5017886;28;20229;-72
2022/10/12 00:34:34;;;;;;;22.23;14.43;;;11.60;99.90;;;;;;5017565;28;20651;-73
2022/10/12 00:37:00;;;;;;;27.80;15.30;;;11.50;99.90;;;;;;5016872;28;20431;-74
2022/10/12 00:39:25;;;;;;;27.07;15.23;;;11.50;99.90;;;;;;5018083;28;20187;-73
2022/10/12 00:41:51;;;;;;;22.63;14.00;;;11.40;99.90;;;;;;5001755;28;20214;-73
2022/10/12 00:44:40;;;;;;;35.70;16.10;;;11.40;99.90;;;;;;5014849;28;20611;-73
2022/10/12 00:47:21;;;;;;;28.30;15.00;;;11.40;99.90;;;;;;5017296;28;20187;-73
2022/10/12 00:49:55;;;;;;;21.60;14.87;;;11.30;99.90;;;;;;5017509;28;20973;-73
2022/10/12 00:52:26;;;;;;;24.27;14.50;;;11.30;99.90;;;;;;5022078;28;20842;-72
2022/10/12 00:54:53;;;;;;;23.10;14.63;;;11.30;99.90;;;;;;5010269;28;20458;-73
2022/10/12 00:57:20;;;;;;;20.60;14.23;;;11.20;99.90;;;;;;5019560;28;20409;-72
2022/10/12 00:59:54;;;;;;;21.20;14.10;;;11.20;99.90;;;;;;5011782;28;20422;-72
2022/10/12 02:33:21;;;;;;;24.47;16.00;;;10.00;99.90;;;;;;5022013;23;20510;-73
2022/10/12 02:35:59;;;;;;;23.33;14.10;;;9.90;99.90;;;;;;4990224;28;20564;-73
2022/10/12 02:38:49;;;;;;;23.43;13.63;;;9.90;99.90;;;;;;4999223;28;20437;-73
2022/10/12 02:41:28;;;;;;;25.97;15.00;;;9.90;99.90;;;;;;4997562;28;20461;-73
2022/10/12 02:43:59;;;;;;;23.97;15.53;;;9.80;99.90;;;;;;5006996;28;20424;-72
2022/10/12 02:46:27;;;;;;;30.03;14.77;;;9.80;99.90;;;;;;4994297;28;20559;-73
2022/10/12 02:48:55;;;;;;;21.53;13.47;;;9.80;99.90;;;;;;5003997;28;20432;-73
2022/10/12 02:51:22;;;;;;;30.17;15.80;;;9.90;99.90;;;;;;5005990;28;20472;-73
2022/10/12 02:53:48;;;;;;;24.77;16.07;;;9.90;99.90;;;;;;5000960;28;20868;-73
2022/10/12 02:56:14;;;;;;;30.43;15.50;;;9.90;99.90;;;;;;5003972;28;20912;-74
2022/10/12 02:58:44;;;;;;;27.10;16.10;;;9.90;99.90;;;;;;5001030;28;20442;-74
2022/10/12 03:01:11;;;;;;;24.20;15.57;;;10.00;99.90;;;;;;4994490;28;20555;-73
2022/10/12 03:03:37;;;;;;;19.80;14.60;;;10.00;99.90;;;;;;5001594;28;20422;-72
2022/10/12 03:06:03;;;;;;;30.93;16.37;;;10.00;99.90;;;;;;5002224;28;20940;-73
2022/10/12 03:08:28;;;;;;;29.83;17.53;;;10.10;99.90;;;;;;5006156;28;20421;-72
2022/10/12 03:10:54;;;;;;;36.17;17.17;;;10.20;99.90;;;;;;5000301;28;20305;-73
2022/10/12 03:13:19;;;;;;;27.33;16.70;;;10.20;99.90;;;;;;5004638;28;20241;-73
2022/10/12 03:15:45;;;;;;;35.13;18.47;;;10.20;99.90;;;;;;5006436;28;20230;-73
2022/10/12 03:18:10;;;;;;;27.60;17.83;;;10.30;99.90;;;;;;5003509;28;20266;-73
2022/10/12 03:20:36;;;;;;;27.77;16.30;;;10.30;99.90;;;;;;4999061;28;20194;-73
2022/10/12 03:23:02;;;;;;;25.77;17.23;;;10.30;99.90;;;;;;5002809;28;20230;-73
2022/10/12 03:25:27;;;;;;;31.53;17.37;;;10.30;99.90;;;;;;5005082;28;20304;-73
2022/10/12 03:27:53;;;;;;;37.30;16.83;;;10.40;99.90;;;;;;5004387;28;20521;-73
2022/10/12 03:30:18;;;;;;;32.70;18.47;;;10.40;99.90;;;;;;4997049;28;20198;-73
2022/10/12 03:32:44;;;;;;;32.40;17.23;;;10.40;99.90;;;;;;4993021;28;20221;-73
2022/10/12 03:35:09;;;;;;;24.67;16.37;;;10.50;99.90;;;;;;5000024;28;20211;-73
2022/10/12 03:37:35;;;;;;;27.47;18.17;;;10.50;99.90;;;;;;5002655;28;20187;-73
2022/10/12 03:40:01;;;;;;;30.10;17.10;;;10.50;99.90;;;;;;5008520;28;20185;-73
2022/10/12 03:42:26;;;;;;;28.60;18.37;;;10.50;99.90;;;;;;4996657;28;20497;-73
2022/10/12 03:44:52;;;;;;;32.93;18.20;;;10.60;99.90;;;;;;5002576;28;20202;-74
2022/10/12 03:47:17;;;;;;;29.90;18.10;;;10.60;99.90;;;;;;5001626;28;20195;-73
2022/10/12 03:49:43;;;;;;;37.70;17.53;;;10.60;99.90;;;;;;5001100;28;20664;-73
2022/10/12 03:52:08;;;;;;;38.40;20.70;;;10.70;99.90;;;;;;4993864;28;20756;-73
2022/10/12 03:54:34;;;;;;;30.30;17.03;;;10.70;99.90;;;;;;4988394;28;20182;-73
2022/10/12 03:56:59;;;;;;;31.40;19.20;;;10.60;99.90;;;;;;5003784;28;20186;-73
2022/10/12 03:59:25;;;;;;;25.30;19.30;;;10.60;99.90;;;;;;4986372;28;20187;-73
2022/10/12 04:01:50;;;;;;;28.03;19.93;;;10.60;99.90;;;;;;4995704;28;20208;-73
2022/10/12 04:04:16;;;;;;;30.80;18.40;;;10.60;99.90;;;;;;5002627;28;20179;-73
2022/10/12 04:06:41;;;;;;;27.43;18.40;;;10.60;99.90;;;;;;5000261;28;20187;-73
2022/10/12 04:09:07;;;;;;;25.90;17.03;;;10.60;99.90;;;;;;4998212;28;20197;-72
2022/10/12 04:11:32;;;;;;;26.47;16.13;;;10.60;99.90;;;;;;5004768;28;20691;-74
2022/10/12 04:13:58;;;;;;;24.80;17.20;;;10.50;99.90;;;;;;4998759;28;20197;-72
2022/10/12 04:16:23;;;;;;;30.53;17.43;;;10.60;99.90;;;;;;5001579;28;20294;-73
2022/10/12 04:18:49;;;;;;;31.20;17.10;;;10.50;99.90;;;;;;5005439;28;20214;-73
2022/10/12 04:21:15;;;;;;;23.30;16.00;;;10.40;99.90;;;;;;5000978;28;20208;-73
2022/10/12 04:23:42;;;;;;;30.97;16.83;;;10.50;99.90;;;;;;4997575;28;20217;-72
2022/10/12 04:26:08;;;;;;;25.53;18.67;;;10.50;99.90;;;;;;5002457;28;20422;-73
2022/10/12 04:28:34;;;;;;;28.33;18.73;;;10.40;99.90;;;;;;5003121;28;20940;-73
2022/10/12 04:30:59;;;;;;;38.17;19.03;;;10.40;99.90;;;;;;5000694;28;20882;-73
2022/10/12 04:33:25;;;;;;;27.60;18.60;;;10.40;99.90;;;;;;4995218;28;20454;-73
2022/10/12 04:35:50;;;;;;;28.97;18.57;;;10.40;99.90;;;;;;4999317;28;20309;-73
2022/10/12 04:38:16;;;;;;;28.20;17.93;;;10.50;99.90;;;;;;4997758;28;20187;-73
2022/10/12 04:40:46;;;;;;;33.53;18.50;;;10.50;99.90;;;;;;4988039;28;20179;-73
2022/10/12 04:43:12;;;;;;;37.63;18.07;;;10.60;99.90;;;;;;5001510;28;20183;-73
2022/10/12 04:45:37;;;;;;;31.73;17.30;;;10.60;99.90;;;;;;4999280;28;20439;-73
2022/10/12 04:48:03;;;;;;;30.13;18.67;;;10.60;99.90;;;;;;4992553;28;20201;-75
2022/10/12 04:50:28;;;;;;;28.30;18.40;;;10.70;99.90;;;;;;4999491;28;20608;-73
2022/10/12 04:52:54;;;;;;;34.00;17.47;;;10.70;99.90;;;;;;5001162;28;20297;-73
2022/10/12 04:55:19;;;;;;;27.77;15.70;;;10.70;99.90;;;;;;5000516;28;20213;-73
2022/10/12 04:57:45;;;;;;;34.17;16.80;;;10.80;99.90;;;;;;5006411;28;20183;-73
2022/10/12 05:00:11;;;;;;;34.93;17.70;;;10.80;99.90;;;;;;4996262;28;20219;-74
2022/10/12 05:02:36;;;;;;;27.73;18.23;;;10.90;99.90;;;;;;4998557;28;20597;-74
2022/10/12 05:05:02;;;;;;;24.37;16.87;;;10.90;99.90;;;;;;4996112;28;20187;-73
2022/10/12 05:07:28;;;;;;;27.67;17.10;;;10.90;99.90;;;;;;5006397;28;20668;-73
2022/10/12 05:09:53;;;;;;;23.60;15.73;;;10.90;99.90;;;;;;4998063;28;20193;-71
2022/10/12 05:12:19;;;;;;;26.70;19.57;;;11.00;99.90;;;;;;4999678;28;20316;-71
2022/10/12 05:14:44;;;;;;;34.23;17.43;;;11.00;99.90;;;;;;4998097;28;20184;-70
2022/10/12 05:17:10;;;;;;;32.87;19.37;;;11.10;99.90;;;;;;4999018;28;20275;-72
2022/10/12 05:19:36;;;;;;;28.10;17.87;;;11.10;99.90;;;;;;5004245;28;20189;-71
2022/10/12 05:22:01;;;;;;;25.80;16.67;;;11.10;99.90;;;;;;5003710;28;20438;-72
2022/10/12 05:24:27;;;;;;;25.60;18.27;;;11.20;99.90;;;;;;4996561;28;20197;-72
2022/10/12 05:26:53;;;;;;;27.70;17.13;;;11.20;99.90;;;;;;4989662;28;20230;-72
2022/10/12 05:29:18;;;;;;;33.17;18.57;;;11.20;99.90;;;;;;4991016;28;20953;-72
2022/10/12 05:31:44;;;;;;;28.40;18.27;;;11.20;99.90;;;;;;4993823;28;20438;-72
2022/10/12 05:34:09;;;;;;;28.07;18.83;;;11.20;99.90;;;;;;4995103;28;20607;-72
2022/10/12 05:36:35;;;;;;;26.87;19.43;;;11.30;99.90;;;;;;4997538;28;20222;-72
2022/10/12 05:39:00;;;;;;;38.67;18.73;;;11.30;99.90;;;;;;5003794;28;20207;-72
2022/10/12 05:41:26;;;;;;;30.77;19.93;;;11.40;99.90;;;;;;4999776;28;20203;-72
2022/10/12 05:43:52;;;;;;;25.30;18.13;;;11.40;99.90;;;;;;5005116;28;20176;-72
2022/10/12 05:46:18;;;;;;;23.67;18.50;;;11.40;99.90;;;;;;4999839;28;20219;-72
2022/10/12 05:48:43;;;;;;;29.67;19.70;;;11.40;99.90;;;;;;4999297;28;20470;-72
2022/10/12 05:51:09;;;;;;;30.77;19.00;;;11.40;99.90;;;;;;4996786;28;20211;-72
2022/10/12 05:53:35;;;;;;;28.83;18.00;;;11.40;99.90;;;;;;5000222;28;20181;-72
2022/10/12 05:56:00;;;;;;;26.87;17.57;;;11.50;99.90;;;;;;4999885;28;20290;-72
2022/10/12 05:58:28;;;;;;;26.80;17.00;;;11.50;99.90;;;;;;5009531;28;20187;-72
2022/10/12 06:00:54;;;;;;;32.87;19.57;;;11.60;99.90;;;;;;4999641;28;20217;-72
2022/10/12 06:03:20;;;;;;;29.20;17.90;;;11.60;99.90;;;;;;4998346;28;20437;-72
2022/10/12 06:05:46;;;;;;;24.97;17.47;;;11.60;99.90;;;;;;5000009;28;20422;-72
2022/10/12 06:08:11;;;;;;;29.67;18.40;;;11.70;99.90;;;;;;5001544;28;20852;-72
2022/10/12 06:10:43;;;;;;;27.63;18.90;;;11.70;99.90;;;;;;4999802;28;20790;-71
2022/10/12 06:13:09;;;;;;;25.00;18.03;;;11.80;99.90;;;;;;4997487;28;20202;-72
2022/10/12 06:15:35;;;;;;;26.73;19.40;;;11.80;99.90;;;;;;4998884;28;20469;-72
2022/10/12 06:18:01;;;;;;;29.00;19.27;;;11.90;99.90;;;;;;5000738;28;20188;-72
2022/10/12 06:20:26;;;;;;;26.63;17.93;;;11.90;99.90;;;;;;5007297;28;20818;-72
2022/10/12 06:22:52;;;;;;;27.70;17.63;;;12.00;99.90;;;;;;5008047;28;20221;-72
2022/10/12 06:25:17;;;;;;;29.23;18.43;;;12.00;99.90;;;;;;5005744;28;20186;-72
2022/10/12 06:27:44;;;;;;;25.80;18.67;;;12.10;99.90;;;;;;5004793;28;20592;-71
2022/10/12 06:30:11;;;;;;;28.33;17.97;;;12.10;99.90;;;;;;5001623;28;20205;-71
2022/10/12 06:32:36;;;;;;;34.00;18.30;;;12.20;99.90;;;;;;4998618;28;20480;-73
2022/10/12 06:35:02;;;;;;;29.60;18.83;;;12.20;99.90;;;;;;5001183;28;20473;-72
2022/10/12 06:37:28;;;;;;;25.73;17.47;;;12.20;99.90;;;;;;5004522;28;20245;-72
2022/10/12 06:39:54;;;;;;;30.40;17.23;;;12.30;99.90;;;;;;4997865;28;20963;-72
2022/10/12 06:42:20;;;;;;;25.30;17.27;;;12.40;99.90;;;;;;5001378;28;20492;-72
2022/10/12 06:44:45;;;;;;;30.77;19.23;;;12.50;99.90;;;;;;5001430;28;20183;-72
2022/10/12 06:47:11;;;;;;;26.80;17.90;;;12.60;99.90;;;;;;5002468;28;20191;-72
2022/10/12 06:49:36;;;;;;;28.50;17.17;;;12.60;99.90;;;;;;5005053;28;20187;-72
2022/10/12 06:52:02;;;;;;;29.93;18.50;;;12.70;99.90;;;;;;4999445;28;20203;-72
2022/10/12 06:54:28;;;;;;;28.63;17.40;;;12.70;99.90;;;;;;5002883;28;20198;-72
2022/10/12 06:56:53;;;;;;;28.87;17.60;;;12.70;99.90;;;;;;5003446;28;20617;-72
2022/10/12 06:59:21;;;;;;;31.30;18.30;;;12.70;99.90;;;;;;5004474;28;20238;-72
2022/10/12 07:01:47;;;;;;;31.43;19.13;;;12.80;99.90;;;;;;5001702;28;20199;-72
2022/10/12 07:04:12;;;;;;;32.03;17.70;;;12.80;99.90;;;;;;5003468;28;20425;-72
2022/10/12 07:06:38;;;;;;;34.60;20.80;;;12.90;99.90;;;;;;5001753;28;20214;-71
2022/10/12 07:09:04;;;;;;;32.30;18.77;;;12.90;99.90;;;;;;4997120;28;20562;-72
2022/10/12 07:11:29;;;;;;;30.00;18.33;;;12.90;99.90;;;;;;5001652;28;20202;-73
2022/10/12 07:13:56;;;;;;;31.40;19.67;;;12.90;99.90;;;;;;5004692;28;20532;-73
2022/10/12 07:16:22;;;;;;;31.50;19.47;;;12.90;99.90;;;;;;4998021;28;20290;-72
2022/10/12 07:18:48;;;;;;;33.63;20.10;;;12.90;99.90;;;;;;5005597;28;20995;-72
2022/10/12 07:21:13;;;;;;;36.20;19.60;;;13.10;99.90;;;;;;5000594;28;20195;-71
2022/10/12 07:23:39;;;;;;;35.60;21.50;;;13.20;99.90;;;;;;5001529;28;20183;-72
2022/10/12 07:26:06;;;;;;;34.03;18.07;;;13.30;99.90;;;;;;5009143;28;20557;-72
2022/10/12 07:28:33;;;;;;;40.47;20.57;;;13.40;99.90;;;;;;5002977;28;20179;-72
2022/10/12 07:31:04;;;;;;;36.63;18.20;;;13.40;99.90;;;;;;5001127;28;20449;-72
2022/10/12 07:33:32;;;;;;;36.77;19.07;;;13.40;99.90;;;;;;4999434;28;20872;-72
2022/10/12 07:35:58;;;;;;;28.23;20.23;;;13.60;99.90;;;;;;5000125;28;20996;-71
2022/10/12 07:38:25;;;;;;;30.50;20.47;;;13.70;99.90;;;;;;5000771;28;20423;-72
2022/10/12 07:40:51;;;;;;;26.30;17.73;;;13.80;99.90;;;;;;5006851;28;20812;-71
2022/10/12 07:43:16;;;;;;;30.13;18.70;;;13.90;99.90;;;;;;4994371;28;20469;-72
2022/10/12 07:45:43;;;;;;;40.67;19.90;;;13.90;99.90;;;;;;5002179;28;20269;-71
2022/10/12 07:48:08;;;;;;;33.00;18.90;;;14.00;99.90;;;;;;5001325;28;20194;-72
2022/10/12 07:50:34;;;;;;;27.27;20.27;;;14.10;99.90;;;;;;5002697;28;20475;-70
2022/10/12 07:52:59;;;;;;;34.63;20.30;;;14.10;99.90;;;;;;5000191;28;20191;-72
2022/10/12 07:55:25;;;;;;;27.93;18.93;;;14.20;99.90;;;;;;5003261;28;20214;-72
2022/10/12 07:57:51;;;;;;;29.90;18.87;;;14.30;99.90;;;;;;4984232;28;20180;-72
2022/10/12 08:00:16;;;;;;;29.37;17.90;;;14.40;99.90;;;;;;5001678;28;20237;-69
2022/10/12 08:02:42;;;;;;;33.90;19.20;;;14.50;99.90;;;;;;5001253;28;20246;-72
2022/10/12 08:05:08;;;;;;;28.13;19.57;;;14.50;99.90;;;;;;5003570;28;20324;-72
2022/10/12 08:07:33;;;;;;;32.67;20.17;;;14.50;99.90;;;;;;4998191;28;20190;-72
2022/10/12 08:09:59;;;;;;;33.67;19.77;;;14.50;99.90;;;;;;5001211;28;20421;-72
2022/10/12 08:12:24;;;;;;;43.07;19.27;;;14.60;99.90;;;;;;5003564;28;20204;-72
2022/10/12 08:14:50;;;;;;;27.47;20.23;;;14.60;99.90;;;;;;5005356;28;20186;-72
2022/10/12 08:17:15;;;;;;;39.33;18.90;;;14.60;99.90;;;;;;4996763;28;20709;-72
2022/10/12 08:19:41;;;;;;;29.13;19.30;;;14.70;99.90;;;;;;4999950;28;20516;-72
2022/10/12 08:22:06;;;;;;;31.27;19.73;;;14.90;99.90;;;;;;5002827;28;20195;-73
2022/10/12 08:24:34;;;;;;;29.37;19.70;;;15.10;99.90;;;;;;5000584;28;20670;-72
2022/10/12 08:27:00;;;;;;;29.37;19.97;;;15.30;99.90;;;;;;5003801;28;20207;-72
2022/10/12 08:29:25;;;;;;;31.10;19.50;;;15.30;99.90;;;;;;5003855;28;20454;-72
2022/10/12 08:31:51;;;;;;;33.10;18.30;;;15.50;99.90;;;;;;4997128;28;20313;-70
2022/10/12 08:34:17;;;;;;;28.73;18.93;;;15.50;99.90;;;;;;4994533;28;20252;-70
2022/10/12 08:36:42;;;;;;;30.43;18.70;;;15.60;99.90;;;;;;5001736;28;20549;-70
2022/10/12 08:39:08;;;;;;;34.37;18.40;;;15.70;99.90;;;;;;5008798;28;20620;-70
2022/10/12 08:41:59;;;;;;;28.90;19.60;;;15.80;99.90;;;;;;5001249;28;20199;-70
2022/10/12 08:44:35;;;;;;;29.30;17.97;;;16.00;99.90;;;;;;4969225;28;20187;-69
2022/10/12 08:47:38;;;;;;;27.33;18.47;;;16.10;99.90;;;;;;4993642;28;21013;-70
2022/10/12 08:50:06;;;;;;;29.17;18.60;;;16.30;99.90;;;;;;4998466;28;20453;-70
2022/10/12 08:52:40;;;;;;;31.63;17.60;;;16.20;99.90;;;;;;4998235;28;20445;-70
2022/10/12 08:55:20;;;;;;;28.50;16.20;;;16.20;99.90;;;;;;5001746;28;20477;-70
2022/10/12 08:57:46;;;;;;;27.03;16.60;;;16.30;99.90;;;;;;4997611;28;20491;-71
2022/10/12 09:00:14;;;;;;;25.17;15.57;;;16.30;99.90;;;;;;5003104;28;20865;-71
2022/10/12 09:02:58;;;;;;;31.80;18.80;;;16.40;99.90;;;;;;4999024;28;20249;-71
2022/10/12 09:05:34;;;;;;;30.13;17.03;;;16.40;99.90;;;;;;5007567;28;20445;-70
2022/10/12 09:08:12;;;;;;;27.30;18.27;;;16.50;99.90;;;;;;5004194;28;20455;-70
2022/10/12 09:11:17;;;;;;;26.03;18.17;;;16.50;99.90;;;;;;4984943;28;20549;-70
2022/10/12 09:13:56;;;;;;;28.63;17.27;;;16.60;99.90;;;;;;5003878;28;20797;-70
2022/10/12 09:16:24;;;;;;;26.30;17.20;;;16.60;99.90;;;;;;4991143;28;20478;-70
2022/10/12 09:18:57;;;;;;;34.53;16.47;;;16.60;99.90;;;;;;5005091;28;20426;-71
2022/10/12 09:21:26;;;;;;;36.20;19.73;;;16.60;99.90;;;;;;4994911;28;20517;-70
2022/10/12 09:23:55;;;;;;;23.97;14.50;;;16.70;99.90;;;;;;5003691;28;20728;-69
2022/10/12 09:26:34;;;;;;;19.80;12.07;;;16.70;99.90;;;;;;4997286;28;20441;-70
2022/10/12 09:29:00;;;;;;;21.87;14.20;;;16.60;99.90;;;;;;5006467;28;20425;-70
2022/10/12 09:31:52;;;;;;;17.93;11.50;;;16.60;99.90;;;;;;4995227;28;20473;-70
2022/10/12 09:34:18;;;;;;;20.83;11.60;;;16.50;99.90;;;;;;4991081;28;20530;-70
2022/10/12 09:36:44;;;;;;;23.10;13.23;;;16.40;99.90;;;;;;4999820;28;20814;-70
2022/10/12 09:39:15;;;;;;;19.37;13.20;;;16.30;99.90;;;;;;5006703;28;20441;-69
2022/10/12 09:41:43;;;;;;;19.60;12.93;;;16.30;99.90;;;;;;4997845;28;20207;-70
2022/10/12 09:44:25;;;;;;;20.80;13.13;;;16.30;99.90;;;;;;5000443;28;20476;-70
2022/10/12 09:47:00;;;;;;;19.37;12.63;;;16.30;99.90;;;;;;4991229;28;20435;-70
2022/10/12 09:49:41;;;;;;;21.63;12.73;;;16.20;99.90;;;;;;5005589;28;20417;-70
2022/10/12 09:52:08;;;;;;;19.87;13.40;;;16.30;99.90;;;;;;4994191;28;21099;-70
2022/10/12 09:54:34;;;;;;;17.43;13.03;;;16.30;99.90;;;;;;5000018;28;20460;-70
2022/10/12 09:57:01;;;;;;;25.87;14.17;;;16.30;99.90;;;;;;4999928;28;20465;-70
2022/10/12 09:59:31;;;;;;;21.90;13.30;;;16.30;99.90;;;;;;5005755;28;20186;-70
2022/10/12 10:02:09;;;;;;;20.20;13.17;;;16.50;99.90;;;;;;4988646;28;20485;-70
2022/10/12 10:04:36;;;;;;;24.20;13.13;;;16.50;99.90;;;;;;4992299;28;20455;-71
2022/10/12 10:07:20;;;;;;;19.70;13.00;;;16.50;99.90;;;;;;5007593;28;20418;-70
2022/10/12 10:09:48;;;;;;;29.93;13.73;;;16.50;99.90;;;;;;4996371;28;20414;-69
2022/10/12 10:12:23;;;;;;;18.00;12.73;;;16.40;99.90;;;;;;5007205;28;20437;-70
2022/10/12 10:14:50;;;;;;;26.57;12.10;;;16.50;99.90;;;;;;4996047;28;20465;-70
2022/10/12 10:17:32;;;;;;;25.40;12.93;;;16.60;99.90;;;;;;5001489;28;20524;-70
2022/10/12 10:20:03;;;;;;;23.00;13.33;;;16.60;99.90;;;;;;4997837;28;20845;-71
2022/10/12 10:22:29;;;;;;;19.20;12.17;;;16.60;99.90;;;;;;5007010;28;20430;-70
2022/10/12 10:24:59;;;;;;;17.17;11.80;;;16.70;99.90;;;;;;4999810;28;20781;-70
2022/10/12 10:27:30;;;;;;;23.63;13.43;;;16.70;99.90;;;;;;5007006;28;20425;-70
2022/10/12 10:30:20;;;;;;;24.37;13.23;;;16.70;99.90;;;;;;4991085;28;20931;-70
2022/10/12 10:32:46;;;;;;;26.30;13.57;;;16.70;99.90;;;;;;4994093;28;20469;-70
2022/10/12 10:35:12;;;;;;;15.90;12.70;;;16.70;99.90;;;;;;4989196;28;20477;-71
2022/10/12 10:37:54;;;;;;;15.20;11.87;;;16.70;99.90;;;;;;5006544;28;20488;-73
2022/10/12 10:40:31;;;;;;;22.17;12.50;;;16.80;99.90;;;;;;4984148;28;20279;-72
2022/10/12 10:43:05;;;;;;;19.80;11.47;;;16.80;99.90;;;;;;4995658;28;20445;-70
2022/10/12 10:45:48;;;;;;;18.87;11.23;;;16.90;99.90;;;;;;4999713;28;20460;-70
2022/10/12 10:48:18;;;;;;;18.07;12.20;;;17.10;99.90;;;;;;4999548;28;20441;-70
2022/10/12 10:50:55;;;;;;;18.10;10.03;;;17.10;99.90;;;;;;5002769;28;20878;-71
2022/10/12 10:53:23;;;;;;;21.47;11.27;;;17.20;99.90;;;;;;5001475;28;20434;-70
2022/10/12 10:55:51;;;;;;;18.40;11.93;;;17.10;99.90;;;;;;4996333;28;20465;-70
2022/10/12 10:58:33;;;;;;;17.00;9.90;;;17.10;99.90;;;;;;5003084;28;20513;-70
2022/10/12 11:01:09;;;;;;;19.80;10.33;;;17.20;99.90;;;;;;4999668;28;20457;-72
2022/10/12 11:03:45;;;;;;;15.37;11.03;;;17.30;99.90;;;;;;4995736;28;20500;-70
2022/10/12 11:06:36;;;;;;;16.87;10.90;;;17.30;99.90;;;;;;5002534;28;20815;-70
2022/10/12 11:09:28;;;;;;;22.23;11.10;;;17.40;99.90;;;;;;5001870;28;20425;-69
2022/10/12 11:12:18;;;;;;;18.20;10.60;;;17.60;99.90;;;;;;4993508;28;20989;-70
2022/10/12 11:14:47;;;;;;;15.17;11.23;;;17.60;99.90;;;;;;4991262;28;20528;-70
2022/10/12 11:17:25;;;;;;;16.30;11.40;;;17.60;99.90;;;;;;5001746;28;20439;-69
2022/10/12 11:20:09;;;;;;;17.90;10.80;;;17.70;99.90;;;;;;5001811;28;20414;-69
2022/10/12 11:22:46;;;;;;;20.40;10.13;;;18.00;99.90;;;;;;4997218;28;20528;-71
2022/10/12 11:25:53;;;;;;;14.63;10.40;;;18.10;99.90;;;;;;5004080;28;20521;-70
2022/10/12 11:28:18;;;;;;;14.63;9.63;;;18.20;99.90;;;;;;4990711;28;20470;-70
2022/10/12 11:30:50;;;;;;;14.33;10.07;;;18.20;99.90;;;;;;5005763;28;20960;-70
2022/10/12 11:33:37;;;;;;;16.67;9.47;;;18.10;99.90;;;;;;4996614;28;20200;-70
2022/10/12 11:36:11;;;;;;;14.97;10.20;;;18.40;99.90;;;;;;5000237;28;20467;-70
2022/10/12 11:38:54;;;;;;;18.70;9.23;;;18.60;99.90;;;;;;4991585;28;20477;-70
2022/10/12 11:41:25;;;;;;;11.57;9.47;;;19.00;99.90;;;;;;5003599;28;20442;-71
2022/10/12 11:44:17;;;;;;;14.77;9.07;;;19.20;99.90;;;;;;5006313;28;20917;-72
2022/10/12 11:47:00;;;;;;;20.57;9.60;;;19.10;99.90;;;;;;4991580;28;20449;-72
2022/10/12 11:49:31;;;;;;;18.83;9.93;;;19.00;99.90;;;;;;5005746;28;20441;-72
2022/10/12 11:52:01;;;;;;;16.87;10.13;;;18.80;99.90;;;;;;5006415;28;20450;-72
2022/10/12 11:54:34;;;;;;;20.43;10.10;;;18.70;99.90;;;;;;5000874;28;20441;-72
2022/10/12 11:57:07;;;;;;;14.60;9.37;;;18.60;99.90;;;;;;5006853;28;20941;-71
2022/10/12 11:59:40;;;;;;;15.97;9.80;;;18.50;99.90;;;;;;4993302;28;20757;-73
2022/10/12 12:02:28;;;;;;;12.50;9.37;;;18.30;99.90;;;;;;5005548;28;20499;-72
2022/10/12 12:04:54;;;;;;;19.87;9.77;;;18.10;99.90;;;;;;5002281;28;20430;-72
2022/10/12 12:07:55;;;;;;;21.43;8.80;;;18.20;99.90;;;;;;5007488;28;20437;-72
2022/10/12 12:10:27;;;;;;;13.63;8.73;;;18.10;99.90;;;;;;5001679;28;20430;-71
2022/10/12 12:13:13;;;;;;;11.87;8.87;;;18.10;99.90;;;;;;5002113;28;20975;-72
2022/10/12 12:15:42;;;;;;;11.57;9.20;;;18.30;99.90;;;;;;4994763;28;20564;-71
2022/10/12 12:18:17;;;;;;;13.40;8.93;;;18.40;99.90;;;;;;4994933;28;20434;-72
2022/10/12 12:20:42;;;;;;;16.43;9.10;;;18.40;99.90;;;;;;5000732;28;20505;-72
2022/10/12 12:23:25;;;;;;;15.60;11.13;;;18.40;99.90;;;;;;5001566;28;20510;-73
2022/10/12 12:26:27;;;;;;;12.80;9.93;;;18.50;99.90;;;;;;4992274;28;20278;-71
2022/10/12 12:29:28;;;;;;;16.80;10.27;;;18.50;99.90;;;;;;4951635;28;20796;-71
2022/10/12 12:31:58;;;;;;;14.03;9.37;;;18.60;99.90;;;;;;5002588;28;20560;-72
2022/10/12 12:34:25;;;;;;;22.00;11.23;;;18.50;99.90;;;;;;4992472;28;20439;-72
2022/10/12 12:36:51;;;;;;;17.23;10.13;;;18.50;99.90;;;;;;4996026;28;20465;-72
2022/10/12 12:39:25;;;;;;;14.93;9.13;;;18.70;99.90;;;;;;4995039;28;20415;-72
2022/10/12 12:41:58;;;;;;;17.97;8.57;;;18.60;99.90;;;;;;5003390;28;20442;-72
2022/10/12 12:44:35;;;;;;;11.10;7.93;;;18.60;99.90;;;;;;5002269;28;20806;-72
2022/10/12 12:47:01;;;;;;;12.50;9.57;;;18.50;99.90;;;;;;4985392;28;20450;-72
2022/10/12 12:49:46;;;;;;;11.50;9.43;;;18.60;99.90;;;;;;5004834;28;20436;-71
2022/10/12 12:52:24;;;;;;;14.33;8.30;;;18.50;99.90;;;;;;5004292;28;20578;-72
2022/10/12 12:55:31;;;;;;;16.80;8.10;;;18.40;99.90;;;;;;5000510;28;20814;-72
2022/10/12 12:58:05;;;;;;;12.70;8.43;;;18.30;99.90;;;;;;4990347;28;20450;-71
2022/10/12 13:00:53;;;;;;;14.10;8.63;;;18.20;99.90;;;;;;4996089;28;20425;-73
2022/10/12 13:03:45;;;;;;;10.70;6.97;;;18.10;99.90;;;;;;4995065;28;20434;-72
2022/10/12 13:06:41;;;;;;;17.93;8.20;;;18.10;99.90;;;;;;4995325;28;20435;-72
2022/10/12 13:09:32;;;;;;;13.73;8.37;;;18.10;99.90;;;;;;5000225;28;20508;-72
2022/10/12 13:12:09;;;;;;;16.20;8.77;;;18.10;99.90;;;;;;4989156;28;20453;-72
2022/10/12 13:14:48;;;;;;;13.83;7.90;;;18.10;99.90;;;;;;5003900;28;20846;-72
2022/10/12 13:17:22;;;;;;;12.63;8.53;;;18.00;99.90;;;;;;4993835;28;20525;-69
2022/10/12 13:19:48;;;;;;;15.93;8.50;;;18.00;99.90;;;;;;5001947;28;20421;-71
2022/10/12 13:22:30;;;;;;;10.20;8.77;;;18.00;99.90;;;;;;5006458;28;20555;-72
2022/10/12 13:25:03;;;;;;;15.10;8.93;;;18.00;99.90;;;;;;5001000;28;20191;-70
2022/10/12 13:27:49;;;;;;;13.50;8.17;;;18.10;99.90;;;;;;5000429;28;20450;-70
2022/10/12 13:30:45;;;;;;;10.83;8.10;;;18.10;99.90;;;;;;4998466;28;20461;-70
2022/10/12 13:33:23;;;;;;;13.97;8.10;;;17.80;99.90;;;;;;4993692;28;20444;-69
2022/10/12 13:35:59;;;;;;;15.83;8.40;;;17.50;99.90;;;;;;4999143;28;20503;-70
2022/10/12 13:38:27;;;;;;;21.67;7.50;;;17.40;99.90;;;;;;4994646;28;20480;-70
2022/10/12 13:41:02;;;;;;;14.73;8.70;;;17.30;99.90;;;;;;4998283;28;20417;-70
2022/10/12 13:43:30;;;;;;;10.43;7.10;;;17.30;99.90;;;;;;4993697;28;20776;-70
2022/10/12 13:45:55;;;;;;;11.77;8.20;;;17.20;99.90;;;;;;4992526;28;20775;-69
2022/10/12 13:48:23;;;;;;;14.37;7.80;;;17.20;99.90;;;;;;4991790;28;20457;-69
2022/10/12 13:50:51;;;;;;;16.63;7.73;;;17.30;99.90;;;;;;5003833;28;20232;-70
2022/10/12 13:53:17;;;;;;;12.67;7.97;;;17.20;99.90;;;;;;4979832;28;20445;-70
2022/10/12 13:55:53;;;;;;;11.40;7.00;;;17.20;99.90;;;;;;5003893;28;20985;-71
2022/10/12 13:58:23;;;;;;;10.90;6.17;;;17.20;99.90;;;;;;4994248;28;20175;-70
2022/10/12 14:00:48;;;;;;;8.47;6.70;;;17.20;99.90;;;;;;5003700;28;20413;-70
2022/10/12 14:03:14;;;;;;;13.43;5.90;;;17.20;99.90;;;;;;4992260;28;20520;-70
2022/10/12 14:05:44;;;;;;;15.10;6.60;;;17.40;99.90;;;;;;5003566;28;20194;-71
2022/10/12 14:08:14;;;;;;;14.80;8.00;;;17.30;99.90;;;;;;4998891;28;20533;-70
2022/10/12 14:10:41;;;;;;;10.00;6.43;;;17.40;99.90;;;;;;4988699;28;20475;-70
2022/10/12 14:13:08;;;;;;;10.90;6.03;;;17.30;99.90;;;;;;5000838;28;20462;-70
2022/10/12 14:15:37;;;;;;;13.70;6.40;;;17.50;99.90;;;;;;4993291;28;20587;-71